Time;durP1;ratioP1;P1;durP2;ratioP2;P2;SDS_P1;SDS_P2;PMS_P1;PMS_P2;Temp;Humidity;BMP_temperature;BMP_pressure;BME280_temperature;BME280_humidity;BME280_pressure;Samples;Min_cycle;Max_cycle;Signal;HPM_P1;HPM_P2
2022/03/16 00:02:02;;;;;;;100.55;48.28;;;;;;;5.02;53.71;99409.48;4108464;83;21666;-86
2022/03/16 00:08:03;;;;;;;93.42;44.80;;;;;;;4.88;54.23;99415.70;4083713;85;21593;-86
2022/03/16 00:14:14;;;;;;;127.85;55.17;;;;;;;4.81;54.72;99402.09;4119990;84;21103;-87
2022/03/16 00:20:21;;;;;;;113.25;49.83;;;;;;;4.89;55.06;99405.87;4103759;85;21626;-86
2022/03/16 00:26:33;;;;;;;107.00;50.80;;;;;;;4.93;55.48;99409.54;4083317;84;21162;-87
2022/03/16 00:32:34;;;;;;;118.00;55.25;;;;;;;4.95;54.55;99401.08;4093395;84;21031;-86
2022/03/16 00:53:13;;;;;;;121.53;55.75;;;;;;;4.78;55.98;99383.77;4109447;84;22331;-87
2022/03/16 00:59:23;;;;;;;115.05;54.93;;;;;;;4.75;56.57;99392.55;4112844;84;21119;-89
2022/03/16 01:12:37;;;;;;;104.03;50.45;;;;;;;4.95;57.49;99377.44;4005224;87;21096;-87
2022/03/16 01:18:39;;;;;;;117.22;56.33;;;;;;;4.99;57.37;99369.44;3990425;86;21635;-87
2022/03/16 01:24:48;;;;;;;143.15;63.95;;;;;;;4.94;57.97;99360.94;4017705;84;21143;-87
2022/03/16 01:30:49;;;;;;;147.95;68.25;;;;;;;5.03;57.98;99344.61;4115317;84;21125;-86
2022/03/16 01:37:10;;;;;;;152.43;70.15;;;;;;;5.04;57.73;99331.27;4114332;84;21056;-87
2022/03/16 02:05:16;;;;;;;159.03;74.37;;;;;;;4.91;59.64;99312.77;4052547;86;21108;-86
2022/03/16 02:18:07;;;;;;;159.55;75.95;;;;;;;5.05;58.94;99330.94;4042300;85;21116;-86
2022/03/16 02:30:49;;;;;;;141.80;65.05;;;;;;;5.08;58.63;99325.40;4091762;84;21020;-86
2022/03/16 02:36:52;;;;;;;125.40;62.95;;;;;;;5.13;58.66;99330.63;4126198;84;21099;-87
2022/03/16 02:43:08;;;;;;;131.80;63.52;;;;;;;5.17;59.00;99324.20;4110928;84;21040;-87
2022/03/16 02:49:11;;;;;;;129.25;58.92;;;;;;;5.15;58.94;99329.20;4110034;84;21038;-86
2022/03/16 02:55:16;;;;;;;141.88;65.00;;;;;;;5.17;58.77;99316.65;4100414;85;21035;-86
2022/03/16 03:01:31;;;;;;;125.85;60.30;;;;;;;5.11;58.75;99324.73;4102854;84;21012;-86
2022/03/16 03:27:30;;;;;;;128.02;64.07;;;;;;;4.85;59.20;99346.63;4103421;83;21111;-86
2022/03/16 03:33:45;;;;;;;126.30;61.37;;;;;;;4.85;59.18;99346.63;4080088;84;21047;-86
2022/03/16 03:46:38;;;;;;;110.50;54.58;;;;;;;4.72;59.57;99332.74;4048851;86;21063;-86
2022/03/16 03:53:34;;;;;;;110.83;51.85;;;;;;;4.75;59.77;99336.16;4037878;85;21161;-86
2022/03/16 04:00:00;;;;;;;101.25;51.55;;;;;;;4.71;59.83;99340.66;4038982;86;21596;-86
2022/03/16 04:19:21;;;;;;;94.85;46.13;;;;;;;4.65;60.13;99354.95;3861427;89;21174;-86
2022/03/16 04:25:24;;;;;;;89.55;46.13;;;;;;;4.61;61.78;99356.73;4103146;85;21008;-86
2022/03/16 04:39:02;;;;;;;88.67;44.42;;;;;;;4.74;61.28;99358.40;4024923;87;34135;-86
2022/03/16 04:45:12;;;;;;;88.97;42.90;;;;;;;4.82;61.57;99357.56;4062435;85;21179;-86
2022/03/16 04:51:27;;;;;;;78.87;40.98;;;;;;;4.75;61.74;99364.62;4094244;85;21205;-86
2022/03/16 04:57:28;;;;;;;78.20;37.30;;;;;;;4.79;62.09;99365.00;4098475;85;21208;-86
2022/03/16 05:03:29;;;;;;;67.03;35.10;;;;;;;4.81;63.07;99369.55;4100037;85;21032;-85
2022/03/16 05:09:41;;;;;;;64.37;33.83;;;;;;;4.80;62.95;99372.03;4145722;83;21626;-86
2022/03/16 05:29:17;;;;;;;65.32;34.00;;;;;;;4.95;63.82;99379.38;4206525;83;21032;-86
2022/03/16 05:42:00;;;;;;;69.77;33.83;;;;;;;5.22;64.15;99383.73;4201425;83;21048;-86
2022/03/16 05:54:49;;;;;;;56.98;28.87;;;;;;;5.29;64.92;99394.06;4221716;82;21056;-86
2022/03/16 06:00:50;;;;;;;47.88;27.30;;;;;;;5.28;65.40;99399.27;4196067;83;21595;-87
2022/03/16 06:13:45;;;;;;;33.30;19.20;;;;;;;5.46;67.72;99413.74;4220246;83;21107;-86
2022/03/16 06:26:52;;;;;;;41.05;25.10;;;;;;;5.79;68.71;99424.10;4204305;83;21074;-87
2022/03/16 06:33:01;;;;;;;34.83;20.68;;;;;;;5.92;68.93;99429.06;4225560;83;21066;-86
2022/03/16 06:39:03;;;;;;;36.10;21.23;;;;;;;6.02;69.12;99434.06;4200527;83;21033;-85
2022/03/16 07:18:32;;;;;;;26.12;16.40;;;;;;;6.72;71.13;99438.44;4132565;83;21063;-87
2022/03/16 07:24:41;;;;;;;30.27;16.20;;;;;;;7.02;71.07;99446.59;4121507;84;21151;-86
2022/03/16 07:30:55;;;;;;;23.20;14.47;;;;;;;7.24;73.96;99455.11;4135522;84;21166;-86
2022/03/16 07:43:49;;;;;;;24.90;16.25;;;;;;;7.39;72.24;99480.28;4124971;84;21210;-87
2022/03/16 07:49:52;;;;;;;29.02;18.42;;;;;;;7.43;71.93;99494.82;4112827;84;21094;-86
2022/03/16 08:02:46;;;;;;;25.52;16.60;;;;;;;7.47;71.75;99516.14;4119997;84;21067;-87
2022/03/16 08:08:59;;;;;;;24.40;16.65;;;;;;;7.59;71.56;99520.23;4110753;84;21122;-87
2022/03/16 08:22:05;;;;;;;37.35;21.82;;;;;;;7.62;71.62;99531.81;4138613;84;21055;-87
2022/03/16 08:28:06;;;;;;;25.65;15.58;;;;;;;7.59;73.59;99530.33;4066347;86;21020;-89
2022/03/16 08:34:07;;;;;;;24.23;15.72;;;;;;;7.52;73.03;99530.09;4106635;84;21024;-87
2022/03/16 08:40:09;;;;;;;26.02;17.50;;;;;;;7.53;73.72;99533.06;4119054;84;21158;-87
2022/03/16 08:46:11;;;;;;;30.80;17.82;;;;;;;7.52;72.78;99535.55;4094901;84;21124;-87
2022/03/16 08:52:13;;;;;;;31.07;18.25;;;;;;;7.78;72.68;99538.72;4092951;84;21047;-87
2022/03/16 08:58:14;;;;;;;29.75;18.82;;;;;;;8.09;72.54;99538.06;4108390;84;21087;-89
2022/03/16 09:04:16;;;;;;;33.40;20.23;;;;;;;8.46;72.32;99543.08;4112133;85;21067;-88
2022/03/16 09:10:17;;;;;;;38.08;21.48;;;;;;;9.00;71.76;99540.65;4116786;84;21830;-87
2022/03/16 09:16:19;;;;;;;35.33;21.23;;;;;;;9.60;70.80;99549.73;4107479;84;21099;-87
2022/03/16 09:22:22;;;;;;;30.48;20.95;;;;;;;9.58;69.33;99571.75;4107098;84;21008;-86
2022/03/16 09:28:23;;;;;;;33.88;20.08;;;;;;;9.40;69.29;99578.15;4106371;85;21642;-87
2022/03/16 09:34:25;;;;;;;30.92;19.52;;;;;;;9.87;69.40;99586.30;4103463;84;21012;-88
2022/03/16 09:40:26;;;;;;;30.17;19.80;;;;;;;10.13;68.86;99585.19;4108659;84;21090;-88
2022/03/16 09:46:34;;;;;;;29.32;19.25;;;;;;;10.53;67.88;99589.19;4089470;84;21040;-88
2022/03/16 09:52:36;;;;;;;34.50;21.25;;;;;;;10.76;67.67;99607.83;4112166;84;21086;-88
2022/03/16 09:58:37;;;;;;;33.28;21.37;;;;;;;10.44;67.19;99611.87;4112683;84;21030;-87
2022/03/16 10:04:39;;;;;;;35.68;21.75;;;;;;;9.98;67.04;99621.52;4105128;84;21059;-87
2022/03/16 10:23:28;;;;;;;32.78;21.33;;;;;;;10.97;65.68;99640.33;4114343;84;21005;-87
2022/03/16 10:29:32;;;;;;;38.35;21.25;;;;;;;11.09;65.17;99651.92;4108190;84;21109;-87
2022/03/16 10:49:22;;;;;;;32.00;20.90;;;;;;;12.98;61.96;99658.86;4131491;84;21035;-88
2022/03/16 11:16:20;;;;;;;30.00;20.82;;;;;;;12.56;58.34;99683.02;4029666;87;21154;-87
2022/03/16 11:22:31;;;;;;;25.43;19.27;;;;;;;12.12;57.33;99685.50;4034745;86;21079;-87
2022/03/16 11:29:00;;;;;;;36.05;20.25;;;;;;;12.93;56.96;99693.53;4014806;85;21112;-87
2022/03/16 11:35:11;;;;;;;31.27;20.62;;;;;;;13.62;51.77;99691.41;4101137;85;21044;-88
2022/03/16 11:41:12;;;;;;;31.17;21.27;;;;;;;14.15;53.41;99701.52;4112145;84;21048;-89
2022/03/16 11:47:25;;;;;;;35.65;22.80;;;;;;;14.70;52.85;99698.17;4111592;84;21544;-89
2022/03/16 11:53:27;;;;;;;38.75;24.60;;;;;;;14.34;51.84;99705.43;4037729;86;21577;-88
2022/03/16 11:59:31;;;;;;;34.63;24.15;;;;;;;13.99;51.82;99704.53;4106751;84;21409;-89
2022/03/16 12:05:58;;;;;;;31.55;21.42;;;;;;;13.48;51.40;99711.90;4103043;85;21148;-87
2022/03/16 12:18:47;;;;;;;38.60;24.37;;;;;;;12.96;49.89;99717.52;4099582;84;21604;-88
2022/03/16 12:31:22;;;;;;;39.23;26.07;;;;;;;13.07;46.75;99717.11;4099356;84;21662;-88
2022/03/16 12:37:24;;;;;;;40.92;26.93;;;;;;;12.87;48.74;99721.71;4097604;84;21094;-88
2022/03/16 12:43:28;;;;;;;44.65;27.17;;;;;;;13.21;48.61;99724.16;4104621;84;21131;-88
2022/03/16 12:49:30;;;;;;;46.60;29.82;;;;;;;13.47;48.74;99728.17;4092745;84;22300;-89
2022/03/16 12:55:32;;;;;;;48.55;32.23;;;;;;;13.52;47.23;99737.47;4035266;86;21532;-89
2022/03/16 13:01:33;;;;;;;47.03;29.98;;;;;;;13.25;47.11;99745.59;4034805;86;21164;-87
2022/03/16 13:07:37;;;;;;;41.23;29.02;;;;;;;13.30;45.91;99746.64;4031519;86;21124;-87
2022/03/16 13:13:48;;;;;;;55.08;31.85;;;;;;;12.95;46.42;99753.02;4027383;86;21167;-88
2022/03/16 13:19:53;;;;;;;41.77;28.32;;;;;;;13.02;46.54;99745.48;4103467;84;21113;-86
2022/03/16 13:26:10;;;;;;;37.05;24.75;;;;;;;13.13;46.38;99747.22;4008444;87;21103;-88
2022/03/16 13:32:11;;;;;;;36.20;25.32;;;;;;;13.16;45.90;99752.54;4097255;84;21076;-87
2022/03/16 13:38:12;;;;;;;35.03;24.95;;;;;;;13.09;46.03;99751.09;4044422;86;21247;-88
2022/03/16 13:44:19;;;;;;;35.23;24.12;;;;;;;13.13;46.04;99761.53;4108242;85;21071;-88
2022/03/16 13:50:25;;;;;;;36.98;25.48;;;;;;;13.06;46.46;99760.09;4104645;85;21169;-86
2022/03/16 13:56:26;;;;;;;38.33;25.48;;;;;;;12.93;46.24;99771.05;4120480;84;21584;-87
2022/03/16 14:02:28;;;;;;;37.73;24.90;;;;;;;12.61;46.50;99782.95;4099899;84;21173;-88
2022/03/16 14:08:29;;;;;;;30.88;20.75;;;;;;;12.54;46.80;99785.00;4101308;84;21058;-87
2022/03/16 14:14:31;;;;;;;32.38;19.15;;;;;;;12.48;46.80;99790.59;4106148;85;21072;-89
2022/03/16 14:20:36;;;;;;;29.87;19.57;;;;;;;12.25;46.58;99798.06;4031245;86;21119;-88
2022/03/16 14:26:40;;;;;;;28.47;19.92;;;;;;;12.03;46.73;99791.19;4105489;84;21032;-89
2022/03/16 14:32:41;;;;;;;27.02;19.65;;;;;;;12.28;46.73;99804.77;4079795;84;21586;-87
2022/03/16 14:38:51;;;;;;;25.97;16.52;;;;;;;12.36;46.71;99816.08;4099291;85;21051;-88
2022/03/16 14:44:53;;;;;;;27.48;16.75;;;;;;;12.27;46.59;99825.15;4105571;85;21028;-88
2022/03/16 15:07:45;;;;;;;21.87;14.75;;;;;;;11.54;47.01;99845.86;4451928;77;23017;-88
2022/03/16 15:13:46;;;;;;;23.62;14.98;;;;;;;11.46;46.36;99849.63;4382860;80;21041;-89
2022/03/16 15:19:47;;;;;;;19.90;14.65;;;;;;;11.40;46.36;99858.50;4380106;80;21037;-87
2022/03/16 15:25:49;;;;;;;19.98;13.85;;;;;;;11.32;46.36;99858.13;4383354;80;21066;-85
2022/03/16 15:31:51;;;;;;;23.47;13.35;;;;;;;11.28;46.47;99861.34;4380424;80;21596;-86
2022/03/16 15:37:55;;;;;;;25.92;17.32;;;;;;;11.26;46.55;99866.41;4380701;80;21091;-86
2022/03/16 15:43:56;;;;;;;21.77;15.25;;;;;;;11.16;46.44;99870.50;4376661;80;20969;-86
2022/03/16 15:49:58;;;;;;;25.80;17.37;;;;;;;11.00;46.76;99877.95;4379032;80;21482;-87
2022/03/16 15:55:59;;;;;;;38.17;20.80;;;;;;;10.88;46.85;99889.03;4371383;80;21045;-87
2022/03/16 16:02:05;;;;;;;36.45;19.95;;;;;;;10.69;47.04;99895.23;4377579;80;21254;-87
2022/03/16 16:08:07;;;;;;;32.33;18.63;;;;;;;10.54;47.22;99909.69;4372248;80;21624;-86
2022/03/16 16:14:09;;;;;;;22.82;15.13;;;;;;;10.34;47.39;99912.10;4378899;80;22145;-87
2022/03/16 16:20:12;;;;;;;27.17;17.20;;;;;;;10.13;47.52;99916.22;4380171;80;21041;-86
2022/03/16 16:26:14;;;;;;;33.20;18.12;;;;;;;9.93;47.77;99922.07;4377943;80;21054;-86
2022/03/16 16:32:15;;;;;;;34.40;17.37;;;;;;;9.78;47.97;99937.86;4376401;80;22048;-87
2022/03/16 16:38:17;;;;;;;25.92;14.68;;;;;;;9.60;48.16;99950.20;4378852;80;21596;-87
2022/03/16 16:44:18;;;;;;;24.80;14.87;;;;;;;9.40;48.43;99954.69;4349863;80;22233;-86
2022/03/16 16:50:20;;;;;;;24.15;14.47;;;;;;;9.14;48.79;99969.30;4377218;80;21022;-86
2022/03/16 16:56:22;;;;;;;33.65;16.45;;;;;;;8.73;48.91;99979.59;4378321;80;21041;-86
2022/03/16 17:02:23;;;;;;;49.80;26.70;;;;;;;8.38;49.56;99983.27;4377813;80;21012;-86
2022/03/16 17:08:26;;;;;;;61.40;24.65;;;;;;;7.96;49.85;99993.41;4387106;80;21033;-87
2022/03/16 17:14:27;;;;;;;49.90;23.65;;;;;;;7.62;50.42;100001.86;4388080;81;21042;-86
2022/03/16 17:20:33;;;;;;;40.12;23.02;;;;;;;7.22;50.74;100016.98;4387670;81;21112;-86
2022/03/16 17:26:37;;;;;;;57.85;32.03;;;;;;;6.86;51.13;100020.73;4385265;80;21037;-87
2022/03/16 17:32:35;;;;;;;66.30;38.53;;;;;;;6.51;51.74;100025.23;4388327;79;21061;-85
2022/03/16 17:38:37;;;;;;;353.18;154.12;;;;;;;6.35;52.53;100036.63;4285114;80;34318;-86
2022/03/16 17:51:00;;;;;;;74.75;33.50;;;;;;;5.91;53.16;100036.14;4190646;83;21377;-87
2022/03/16 17:57:01;;;;;;;64.40;33.48;;;;;;;5.42;54.38;100044.10;4080175;82;9999743;-87
2022/03/16 18:03:02;;;;;;;58.60;30.20;;;;;;;5.42;54.38;100044.10;4198118;83;21077;-87
2022/03/16 18:09:04;;;;;;;61.10;32.45;;;;;;;5.21;54.83;100049.88;4204456;83;20977;-87
2022/03/16 18:15:09;;;;;;;75.17;38.48;;;;;;;4.98;55.44;100057.05;4201430;83;21439;-86
2022/03/16 18:21:11;;;;;;;94.42;48.80;;;;;;;4.72;55.75;100054.19;4201846;83;21406;-87
2022/03/16 18:27:14;;;;;;;112.37;56.63;;;;;;;4.46;56.14;100060.02;4203490;83;21087;-87
2022/03/16 18:33:18;;;;;;;120.13;60.65;;;;;;;4.26;56.64;100059.94;4209240;83;21009;-86
2022/03/16 18:39:19;;;;;;;139.10;65.50;;;;;;;4.06;57.17;100056.91;4206442;83;21021;-86
2022/03/16 18:45:21;;;;;;;135.40;64.22;;;;;;;3.93;57.66;100074.02;4204579;83;21577;-87
2022/03/16 18:51:35;;;;;;;131.03;61.08;;;;;;;3.83;57.99;100072.88;4209901;83;21092;-87
2022/03/16 18:57:25;;;;;;;131.52;63.92;;;;;;;3.65;58.59;100081.95;4205529;83;21065;-87
2022/03/16 19:03:27;;;;;;;119.72;57.75;;;;;;;3.56;58.76;100091.87;4205697;83;21062;-86
2022/03/16 19:09:29;;;;;;;91.60;46.20;;;;;;;3.45;59.24;100096.70;4176522;84;21002;-87
2022/03/16 19:15:30;;;;;;;73.78;38.92;;;;;;;3.48;59.76;100106.14;4174570;84;20991;-86
2022/03/16 19:21:31;;;;;;;82.02;41.08;;;;;;;3.55;59.76;100110.58;4176369;84;21069;-87
2022/03/16 19:27:33;;;;;;;96.55;45.43;;;;;;;3.50;59.93;100118.80;4176198;84;21930;-86
2022/03/16 19:33:35;;;;;;;81.70;40.48;;;;;;;3.41;60.13;100121.97;4180875;82;21074;-86
2022/03/16 19:39:37;;;;;;;103.45;48.23;;;;;;;3.52;61.13;100128.78;4180322;84;21026;-87
2022/03/16 19:45:40;;;;;;;98.75;49.85;;;;;;;3.59;60.69;100135.94;4172987;84;21582;-86
2022/03/16 19:51:47;;;;;;;93.72;46.00;;;;;;;3.45;60.85;100141.36;4176647;84;21066;-86
2022/03/16 19:57:48;;;;;;;100.63;50.37;;;;;;;3.30;60.63;100146.27;4178367;84;21575;-86
2022/03/16 20:03:50;;;;;;;100.78;48.48;;;;;;;3.07;61.80;100152.08;4175863;83;20997;-86
2022/03/16 20:09:54;;;;;;;117.13;51.70;;;;;;;2.99;61.95;100160.91;4208641;83;21046;-86
2022/03/16 20:15:56;;;;;;;96.53;47.05;;;;;;;2.72;61.62;100164.87;4207937;83;21021;-87
2022/03/16 20:21:57;;;;;;;119.90;56.83;;;;;;;2.48;64.21;100179.84;4204990;83;21069;-86
2022/03/16 20:27:58;;;;;;;133.12;62.67;;;;;;;2.36;63.04;100176.78;4212807;83;21915;-86
2022/03/16 20:34:00;;;;;;;125.80;60.52;;;;;;;2.38;63.30;100178.63;4207728;83;21025;-86
2022/03/16 20:40:06;;;;;;;128.40;58.85;;;;;;;2.21;63.27;100184.30;4205998;83;21073;-86
2022/03/16 20:46:32;;;;;;;;;;;;;;;2.07;63.50;100189.59;4210776;84;21036;-86
2022/03/16 20:52:37;;;;;;;142.25;61.83;;;;;;;2.00;64.48;100197.27;4210083;83;20603;-86
2022/03/16 21:05:27;;;;;;;119.47;56.90;;;;;;;1.69;64.34;100219.52;4211116;83;21022;-86
2022/03/16 21:11:29;;;;;;;101.00;48.87;;;;;;;1.59;64.59;100221.23;4146655;84;21081;-85
2022/03/16 21:24:37;;;;;;;97.60;47.23;;;;;;;1.24;64.88;100233.72;4163030;84;21051;-85
2022/03/16 21:31:07;;;;;;;87.60;42.85;;;;;;;1.15;65.13;100249.45;4160056;84;22270;-85
2022/03/16 21:37:18;;;;;;;99.03;45.92;;;;;;;1.16;66.13;100246.47;4154263;84;21081;-85
2022/03/16 21:50:23;;;;;;;118.33;52.78;;;;;;;0.84;65.87;100246.20;4150850;84;21094;-85
2022/03/16 22:04:15;;;;;;;157.72;69.60;;;;;;;0.58;66.37;100249.36;4165310;84;22247;-85
2022/03/16 22:10:16;;;;;;;166.07;69.03;;;;;;;0.44;66.72;100257.80;4161583;84;21073;-86
2022/03/16 22:16:33;;;;;;;159.67;69.62;;;;;;;0.33;67.04;100254.89;4153561;84;21625;-85
2022/03/16 22:22:38;;;;;;;170.38;69.20;;;;;;;0.38;67.51;100262.38;4151017;85;21015;-85
2022/03/16 22:28:40;;;;;;;136.75;60.38;;;;;;;0.07;67.40;100258.77;4147129;85;21082;-85
2022/03/16 22:34:42;;;;;;;138.88;62.53;;;;;;;0.19;68.53;100268.13;4157521;84;21038;-85
2022/03/16 22:41:02;;;;;;;144.45;68.20;;;;;;;0.27;68.52;100285.63;4097279;85;21119;-84
2022/03/16 22:47:31;;;;;;;141.03;64.15;;;;;;;0.07;68.11;100289.19;4098874;86;21159;-84
2022/03/16 22:53:51;;;;;;;133.15;62.13;;;;;;;-0.19;68.19;100293.84;4104742;85;21148;-84
2022/03/16 23:00:00;;;;;;;121.85;58.30;;;;;;;-0.31;68.58;100294.68;4121436;85;22040;-84
2022/03/16 23:06:05;;;;;;;120.53;54.23;;;;;;;-0.41;68.92;100293.91;4131208;84;21149;-84
2022/03/16 23:12:59;;;;;;;127.17;56.37;;;;;;;-0.43;69.35;100302.25;4099230;84;21106;-84
2022/03/16 23:19:31;;;;;;;123.75;57.27;;;;;;;-0.37;69.63;100307.88;4098956;85;21189;-84
2022/03/16 23:25:42;;;;;;;117.10;56.00;;;;;;;-0.48;69.26;100298.21;4092695;85;21043;-84
2022/03/16 23:32:00;;;;;;;136.30;61.93;;;;;;;-0.63;69.49;100296.08;4163656;84;21518;-83
2022/03/16 23:52:02;;;;;;;230.25;83.62;;;;;;;-0.60;70.11;100308.98;4169665;84;22458;-84
2022/03/16 23:58:24;;;;;;;116.97;53.87;;;;;;;-0.37;70.72;100318.64;4167059;84;21018;-84
